»·PEaware :: N218GT KPSP-KVNY

N218GT :: KPSP-KVNY

FLIGHT INFORMATION

Flight Status: Arrived
Operator: Privately registered:
United States
More flights under this callsign
Pilot: Joe C. (19058)
Aircraft: EMBRAER BANDEIRANTE
(E110)
More flights by this aircraft type
Origin: KPSP Palm Springs Intl
United States
Destination: KVNY Van Nuys
United States
More flights between these airports :: More routes between these airports
Route: CATH1 PSP V388 PDZ V197 POM V264 ITSME V186 VNY
File this flight plan on PilotEdge
Remarks:
Altitude:
(Current/Filed)
12,000ft
Speed:
(Current/Filed)
180kts
Departed: 03-Sep-18 12:54 PM
Arrived: 03-Sep-18 01:49 PM
Distance/Time
Traveled:
101nm/0:55
Distance/Time
To Go:
Arrived

Flight Plot

Page will automatically refresh every two minutes.


Map Options




Map Legend


Flown Route
Filed Route
Departure Airport
Arrival Airport
Navaid (VOR, NDB)
Fix

Horizontal Profiles

Position Reports

Time Latitude Longitude Heading Altitude Ground
Speed
03-Sep-18 12:30 33.826136 -116.508718 270 421ft 0kts
03-Sep-18 12:31 33.826136 -116.508718 270 421ft 0kts
03-Sep-18 12:32 33.826136 -116.508718 270 421ft 0kts
03-Sep-18 12:33 33.826136 -116.508718 270 421ft 0kts
03-Sep-18 12:34 33.826136 -116.508718 270 421ft 0kts
03-Sep-18 12:35 33.826136 -116.508718 270 421ft 0kts
03-Sep-18 12:36 33.826136 -116.508718 270 421ft 0kts
03-Sep-18 12:37 33.826136 -116.508718 270 421ft 0kts
03-Sep-18 12:38 33.826136 -116.508718 270 421ft 0kts
03-Sep-18 12:39 33.826136 -116.508718 270 421ft 0kts
03-Sep-18 12:40 33.826136 -116.508718 270 421ft 0kts
03-Sep-18 12:41 33.826136 -116.508718 270 421ft 0kts
03-Sep-18 12:42 33.825664 -116.508065 85 419ft 0kts
03-Sep-18 12:43 33.825664 -116.508065 85 419ft 0kts
03-Sep-18 12:44 33.825664 -116.508065 85 419ft 0kts
03-Sep-18 12:45 33.825664 -116.508065 85 419ft 0kts
03-Sep-18 12:46 33.825664 -116.508065 85 419ft 0kts
03-Sep-18 12:47 33.825664 -116.508065 85 419ft 0kts
03-Sep-18 12:48 33.825664 -116.508065 85 419ft 0kts
03-Sep-18 12:49 33.825666 -116.508020 85 419ft 2kts
03-Sep-18 12:50 33.828687 -116.508840 317 426ft 21kts
03-Sep-18 12:51 33.833731 -116.513455 323 445ft 23kts
03-Sep-18 12:52 33.839236 -116.517830 323 470ft 25kts
03-Sep-18 12:53 33.840018 -116.518225 39 473ft 0kts
03-Sep-18 12:54 33.840018 -116.518225 39 473ft 0kts
03-Sep-18 12:55 33.830483 -116.508719 141 489ft 125kts
03-Sep-18 12:56 33.804380 -116.482082 92 1807ft 131kts
03-Sep-18 12:57 33.797139 -116.440729 89 3036ft 126kts
03-Sep-18 12:58 33.815040 -116.405548 51 4082ft 125kts
03-Sep-18 12:59 33.836396 -116.373574 53 5010ft 121kts
03-Sep-18 13:00 33.829054 -116.334579 113 5656ft 136kts
03-Sep-18 13:01 33.812724 -116.295143 115 6692ft 128kts
03-Sep-18 13:02 33.796669 -116.257085 115 7621ft 127kts
03-Sep-18 13:03 33.770409 -116.262161 266 8371ft 148kts
03-Sep-18 13:04 33.794334 -116.301215 309 8937ft 149kts
03-Sep-18 13:05 33.818902 -116.341866 307 9494ft 154kts
03-Sep-18 13:07 33.843935 -116.385043 306 10150ft 155kts
03-Sep-18 13:08 33.868172 -116.426994 305 10700ft 153kts
03-Sep-18 13:09 33.881666 -116.476224 287 11243ft 155kts
03-Sep-18 13:10 33.894205 -116.525477 286 11877ft 153kts
03-Sep-18 13:11 33.907783 -116.579128 286 11930ft 184kts
03-Sep-18 13:12 33.923642 -116.640552 285 11922ft 195kts
03-Sep-18 13:13 33.938627 -116.702065 285 11909ft 194kts
03-Sep-18 13:14 33.951622 -116.765112 276 11910ft 194kts
03-Sep-18 13:15 33.960012 -116.829493 277 11919ft 194kts
03-Sep-18 13:16 33.968320 -116.893875 277 11924ft 194kts
03-Sep-18 13:17 33.976500 -116.958410 277 11923ft 195kts
03-Sep-18 13:18 33.984740 -117.023374 278 11924ft 196kts
03-Sep-18 13:19 33.992875 -117.088442 279 11922ft 197kts
03-Sep-18 13:20 34.001022 -117.153539 279 11921ft 197kts
03-Sep-18 13:21 34.009171 -117.218945 279 11920ft 197kts
03-Sep-18 13:22 34.017273 -117.284297 279 11919ft 197kts
03-Sep-18 13:23 34.025354 -117.349779 279 11918ft 197kts
03-Sep-18 13:24 34.033414 -117.415377 279 11918ft 197kts
03-Sep-18 13:25 34.041429 -117.480902 279 11918ft 197kts
03-Sep-18 13:26 34.049429 -117.546605 279 11918ft 198kts
03-Sep-18 13:27 34.057372 -117.612141 279 11919ft 198kts
03-Sep-18 13:28 34.065184 -117.676870 279 12011ft 193kts
03-Sep-18 13:29 34.072983 -117.741723 278 11692ft 209kts
03-Sep-18 13:30 34.083923 -117.813269 283 10564ft 206kts
03-Sep-18 13:31 34.096843 -117.875256 282 9334ft 181kts
03-Sep-18 13:32 34.108660 -117.932049 282 8020ft 174kts
03-Sep-18 13:33 34.120007 -117.986690 282 6875ft 159kts
03-Sep-18 13:34 34.131263 -118.041184 282 5969ft 179kts
03-Sep-18 13:35 34.143376 -118.099962 283 4738ft 190kts
03-Sep-18 13:36 34.155515 -118.158885 282 4066ft 181kts
03-Sep-18 13:37 34.168472 -118.222051 283 4029ft 200kts
03-Sep-18 13:38 34.182013 -118.288131 283 4028ft 203kts
03-Sep-18 13:39 34.195548 -118.354430 283 4028ft 204kts
03-Sep-18 13:40 34.209092 -118.420984 284 4029ft 204kts
03-Sep-18 13:41 34.222518 -118.487103 285 4029ft 202kts
03-Sep-18 13:42 34.265761 -118.520367 337 4186ft 188kts
03-Sep-18 13:43 34.314742 -118.548253 331 4045ft 196kts
03-Sep-18 13:44 34.362090 -118.580772 335 4050ft 195kts
03-Sep-18 13:45 34.378749 -118.544985 146 4051ft 171kts
03-Sep-18 13:46 34.340892 -118.519943 151 4031ft 138kts
03-Sep-18 13:47 34.305094 -118.499422 173 3209ft 150kts
03-Sep-18 13:48 34.268643 -118.495866 175 2244ft 126kts
03-Sep-18 13:49 34.236864 -118.492908 175 1394ft 112kts
03-Sep-18 13:50 34.207624 -118.490171 173 807ft 44kts
03-Sep-18 13:51 34.204104 -118.490562 208 807ft 7kts
03-Sep-18 13:52 34.203622 -118.491457 177 807ft 0kts
03-Sep-18 13:53 34.203622 -118.491457 177 807ft 0kts
03-Sep-18 13:54 34.203622 -118.491457 177 807ft 0kts
03-Sep-18 13:55 34.203622 -118.491457 177 807ft 0kts
03-Sep-18 13:56 34.203622 -118.491457 177 807ft 0kts

Navigation Log

Ident Type
1. KPSP Airport
2. PSP Navaid
3. DEWAY Fix
4. ACINS Fix
5. LENHO Fix
6. KNDAL Fix
7. PDZ Navaid
8. POM Navaid
9. COVIN Fix
10. HOPUN Fix
11. ITSME Fix
12. ELMOO Fix
13. PURMS Fix
14. DARTS Fix
15. VNY Navaid
16. KVNY Airport